Terminal Aerodrome Forecast
Issued by NWS

Home | Current Version | Previous Version | Text Only | Print | Product List | Glossary Off
Versions: 1 2 3 4 5 6 7 8 9 10 11 12 13 14 15

000
FTUS42 KMHX 030214 AAA
TAFISO
TAF AMD
KISO 030214Z 0302/0324 23004KT P6SM VCSH BKN050
     FM030600 23008KT P6SM BKN080
     FM031600 24012G20KT P6SM VCTS BKN035CB
      AMD LTD TO CLD VIS AND WIND=

USA.gov is the U.S. government's official web portal to all federal, state and local government web resources and services.